sensor_id;sensor_type;location;lat;lon;timestamp;P1;durP1;ratioP1;P2;durP2;ratioP2
53409;SDS011;66590;50.734;4.246;2023-07-13T00:02:25;10.35;;;2.55;;
53409;SDS011;66590;50.734;4.246;2023-07-13T00:04:53;12.30;;;2.83;;
53409;SDS011;66590;50.734;4.246;2023-07-13T00:07:21;9.70;;;2.78;;
53409;SDS011;66590;50.734;4.246;2023-07-13T00:09:48;12.02;;;3.10;;
53409;SDS011;66590;50.734;4.246;2023-07-13T00:12:22;6.30;;;2.75;;
53409;SDS011;66590;50.734;4.246;2023-07-13T00:14:51;10.05;;;3.10;;
53409;SDS011;66590;50.734;4.246;2023-07-13T00:17:18;10.77;;;2.85;;
53409;SDS011;66590;50.734;4.246;2023-07-13T00:19:45;10.65;;;3.03;;
53409;SDS011;66590;50.734;4.246;2023-07-13T00:22:14;14.15;;;3.17;;
53409;SDS011;66590;50.734;4.246;2023-07-13T00:24:44;9.70;;;3.15;;
53409;SDS011;66590;50.734;4.246;2023-07-13T00:27:11;9.40;;;2.63;;
53409;SDS011;66590;50.734;4.246;2023-07-13T00:29:39;10.98;;;3.03;;
53409;SDS011;66590;50.734;4.246;2023-07-13T00:32:06;12.07;;;3.30;;
53409;SDS011;66590;50.734;4.246;2023-07-13T00:34:34;10.30;;;2.90;;
53409;SDS011;66590;50.734;4.246;2023-07-13T00:37:02;8.85;;;3.50;;
53409;SDS011;66590;50.734;4.246;2023-07-13T00:39:30;10.27;;;2.65;;
53409;SDS011;66590;50.734;4.246;2023-07-13T00:41:58;9.23;;;3.75;;
53409;SDS011;66590;50.734;4.246;2023-07-13T00:44:25;11.00;;;3.10;;
53409;SDS011;66590;50.734;4.246;2023-07-13T00:46:52;10.93;;;2.78;;
53409;SDS011;66590;50.734;4.246;2023-07-13T00:49:20;7.95;;;2.80;;
53409;SDS011;66590;50.734;4.246;2023-07-13T00:51:50;8.35;;;2.85;;
53409;SDS011;66590;50.734;4.246;2023-07-13T00:54:21;10.25;;;3.10;;
53409;SDS011;66590;50.734;4.246;2023-07-13T00:56:55;9.07;;;3.42;;
53409;SDS011;66590;50.734;4.246;2023-07-13T00:59:26;9.40;;;3.05;;
53409;SDS011;66590;50.734;4.246;2023-07-13T01:01:53;10.88;;;3.50;;
53409;SDS011;66590;50.734;4.246;2023-07-13T01:04:23;6.50;;;2.85;;
53409;SDS011;66590;50.734;4.246;2023-07-13T01:06:51;11.77;;;3.10;;
53409;SDS011;66590;50.734;4.246;2023-07-13T01:09:19;9.65;;;3.15;;
53409;SDS011;66590;50.734;4.246;2023-07-13T01:11:46;10.20;;;2.97;;
53409;SDS011;66590;50.734;4.246;2023-07-13T01:14:15;10.52;;;3.30;;
53409;SDS011;66590;50.734;4.246;2023-07-13T01:16:44;11.85;;;3.40;;
53409;SDS011;66590;50.734;4.246;2023-07-13T01:19:15;8.65;;;2.72;;
53409;SDS011;66590;50.734;4.246;2023-07-13T01:21:52;11.63;;;3.00;;
53409;SDS011;66590;50.734;4.246;2023-07-13T01:24:19;16.85;;;3.72;;
53409;SDS011;66590;50.734;4.246;2023-07-13T01:26:46;9.70;;;3.50;;
53409;SDS011;66590;50.734;4.246;2023-07-13T01:29:14;10.25;;;3.25;;
53409;SDS011;66590;50.734;4.246;2023-07-13T01:31:41;11.90;;;4.15;;
53409;SDS011;66590;50.734;4.246;2023-07-13T01:34:08;9.65;;;2.97;;
53409;SDS011;66590;50.734;4.246;2023-07-13T01:36:35;14.48;;;3.97;;
53409;SDS011;66590;50.734;4.246;2023-07-13T01:39:04;15.30;;;3.78;;
53409;SDS011;66590;50.734;4.246;2023-07-13T01:41:32;11.55;;;4.30;;
53409;SDS011;66590;50.734;4.246;2023-07-13T01:43:59;13.07;;;3.70;;
53409;SDS011;66590;50.734;4.246;2023-07-13T01:46:27;9.98;;;3.35;;
53409;SDS011;66590;50.734;4.246;2023-07-13T01:48:54;11.63;;;3.35;;
53409;SDS011;66590;50.734;4.246;2023-07-13T01:51:21;11.25;;;3.58;;
53409;SDS011;66590;50.734;4.246;2023-07-13T01:53:49;10.00;;;3.63;;
53409;SDS011;66590;50.734;4.246;2023-07-13T01:56:17;8.73;;;3.22;;
53409;SDS011;66590;50.734;4.246;2023-07-13T01:58:45;15.65;;;3.90;;
53409;SDS011;66590;50.734;4.246;2023-07-13T02:01:12;12.05;;;3.50;;
53409;SDS011;66590;50.734;4.246;2023-07-13T02:03:40;10.20;;;3.53;;
53409;SDS011;66590;50.734;4.246;2023-07-13T02:06:07;10.70;;;3.58;;
53409;SDS011;66590;50.734;4.246;2023-07-13T02:08:34;12.50;;;3.33;;
53409;SDS011;66590;50.734;4.246;2023-07-13T02:11:03;12.48;;;3.47;;
53409;SDS011;66590;50.734;4.246;2023-07-13T02:13:32;14.77;;;3.63;;
53409;SDS011;66590;50.734;4.246;2023-07-13T02:15:59;8.95;;;3.65;;
53409;SDS011;66590;50.734;4.246;2023-07-13T02:18:27;8.02;;;3.53;;
53409;SDS011;66590;50.734;4.246;2023-07-13T02:20:54;10.13;;;3.42;;
53409;SDS011;66590;50.734;4.246;2023-07-13T02:23:22;14.02;;;3.88;;
53409;SDS011;66590;50.734;4.246;2023-07-13T02:25:49;11.30;;;3.50;;
53409;SDS011;66590;50.734;4.246;2023-07-13T02:28:20;14.15;;;3.55;;
53409;SDS011;66590;50.734;4.246;2023-07-13T02:30:49;13.35;;;4.10;;
53409;SDS011;66590;50.734;4.246;2023-07-13T02:33:16;9.43;;;3.55;;
53409;SDS011;66590;50.734;4.246;2023-07-13T02:35:43;13.60;;;3.95;;
53409;SDS011;66590;50.734;4.246;2023-07-13T02:38:11;14.02;;;3.60;;
53409;SDS011;66590;50.734;4.246;2023-07-13T02:40:38;10.07;;;3.40;;
53409;SDS011;66590;50.734;4.246;2023-07-13T02:43:05;11.65;;;3.90;;
53409;SDS011;66590;50.734;4.246;2023-07-13T02:45:33;11.93;;;3.33;;
53409;SDS011;66590;50.734;4.246;2023-07-13T02:48:01;10.05;;;3.88;;
53409;SDS011;66590;50.734;4.246;2023-07-13T02:50:29;15.02;;;4.55;;
53409;SDS011;66590;50.734;4.246;2023-07-13T02:52:56;10.88;;;4.00;;
53409;SDS011;66590;50.734;4.246;2023-07-13T02:55:23;13.60;;;3.63;;
53409;SDS011;66590;50.734;4.246;2023-07-13T02:57:50;14.90;;;3.92;;
53409;SDS011;66590;50.734;4.246;2023-07-13T03:00:18;11.98;;;4.10;;
53409;SDS011;66590;50.734;4.246;2023-07-13T03:02:45;13.68;;;3.92;;
53409;SDS011;66590;50.734;4.246;2023-07-13T03:05:14;11.45;;;3.72;;
53409;SDS011;66590;50.734;4.246;2023-07-13T03:07:42;12.25;;;4.13;;
53409;SDS011;66590;50.734;4.246;2023-07-13T03:10:09;16.38;;;4.70;;
53409;SDS011;66590;50.734;4.246;2023-07-13T03:12:36;14.85;;;4.03;;
53409;SDS011;66590;50.734;4.246;2023-07-13T03:15:04;15.32;;;3.85;;
53409;SDS011;66590;50.734;4.246;2023-07-13T03:17:31;16.55;;;4.10;;
53409;SDS011;66590;50.734;4.246;2023-07-13T03:19:59;11.60;;;4.63;;
53409;SDS011;66590;50.734;4.246;2023-07-13T03:22:27;14.85;;;4.13;;
53409;SDS011;66590;50.734;4.246;2023-07-13T03:24:55;12.25;;;4.30;;
53409;SDS011;66590;50.734;4.246;2023-07-13T03:27:22;12.05;;;4.20;;
53409;SDS011;66590;50.734;4.246;2023-07-13T03:29:49;16.30;;;3.83;;
53409;SDS011;66590;50.734;4.246;2023-07-13T03:32:16;13.05;;;3.95;;
53409;SDS011;66590;50.734;4.246;2023-07-13T03:34:43;15.07;;;4.05;;
53409;SDS011;66590;50.734;4.246;2023-07-13T03:37:11;12.00;;;3.75;;
53409;SDS011;66590;50.734;4.246;2023-07-13T03:39:40;13.93;;;4.03;;
53409;SDS011;66590;50.734;4.246;2023-07-13T03:42:07;14.88;;;4.05;;
53409;SDS011;66590;50.734;4.246;2023-07-13T03:44:34;13.60;;;4.18;;
53409;SDS011;66590;50.734;4.246;2023-07-13T03:47:02;13.07;;;3.72;;
53409;SDS011;66590;50.734;4.246;2023-07-13T03:49:29;13.30;;;4.82;;
53409;SDS011;66590;50.734;4.246;2023-07-13T03:51:56;11.68;;;4.22;;
53409;SDS011;66590;50.734;4.246;2023-07-13T03:54:24;11.43;;;4.22;;
53409;SDS011;66590;50.734;4.246;2023-07-13T03:56:52;13.95;;;4.15;;
53409;SDS011;66590;50.734;4.246;2023-07-13T03:59:20;17.38;;;4.00;;
53409;SDS011;66590;50.734;4.246;2023-07-13T04:01:47;12.98;;;4.15;;
53409;SDS011;66590;50.734;4.246;2023-07-13T04:04:14;12.85;;;4.38;;
53409;SDS011;66590;50.734;4.246;2023-07-13T04:06:42;12.40;;;3.83;;
53409;SDS011;66590;50.734;4.246;2023-07-13T04:09:09;19.30;;;4.72;;
53409;SDS011;66590;50.734;4.246;2023-07-13T04:11:36;17.35;;;4.88;;
53409;SDS011;66590;50.734;4.246;2023-07-13T04:14:05;14.32;;;4.50;;
53409;SDS011;66590;50.734;4.246;2023-07-13T04:16:32;13.07;;;4.60;;
53409;SDS011;66590;50.734;4.246;2023-07-13T04:18:59;17.38;;;4.40;;
53409;SDS011;66590;50.734;4.246;2023-07-13T04:21:27;14.82;;;4.40;;
53409;SDS011;66590;50.734;4.246;2023-07-13T04:23:56;13.48;;;4.68;;
53409;SDS011;66590;50.734;4.246;2023-07-13T04:26:24;15.23;;;4.28;;
53409;SDS011;66590;50.734;4.246;2023-07-13T04:28:51;10.57;;;3.85;;
53409;SDS011;66590;50.734;4.246;2023-07-13T04:31:20;15.45;;;4.72;;
53409;SDS011;66590;50.734;4.246;2023-07-13T04:33:48;14.07;;;4.13;;
53409;SDS011;66590;50.734;4.246;2023-07-13T04:36:16;15.82;;;4.72;;
53409;SDS011;66590;50.734;4.246;2023-07-13T04:38:43;14.30;;;4.18;;
53409;SDS011;66590;50.734;4.246;2023-07-13T04:41:11;11.75;;;4.45;;
53409;SDS011;66590;50.734;4.246;2023-07-13T04:43:39;11.13;;;4.15;;
53409;SDS011;66590;50.734;4.246;2023-07-13T04:46:07;16.15;;;4.72;;
53409;SDS011;66590;50.734;4.246;2023-07-13T04:48:41;13.07;;;4.50;;
53409;SDS011;66590;50.734;4.246;2023-07-13T04:51:09;17.55;;;4.43;;
53409;SDS011;66590;50.734;4.246;2023-07-13T04:53:37;15.27;;;4.20;;
53409;SDS011;66590;50.734;4.246;2023-07-13T04:56:04;22.35;;;4.97;;
53409;SDS011;66590;50.734;4.246;2023-07-13T04:58:32;12.90;;;3.97;;
53409;SDS011;66590;50.734;4.246;2023-07-13T05:01:00;14.30;;;4.60;;
53409;SDS011;66590;50.734;4.246;2023-07-13T05:03:28;16.48;;;4.05;;
53409;SDS011;66590;50.734;4.246;2023-07-13T05:05:58;14.65;;;4.38;;
53409;SDS011;66590;50.734;4.246;2023-07-13T05:08:26;12.48;;;4.25;;
53409;SDS011;66590;50.734;4.246;2023-07-13T05:10:54;13.25;;;4.20;;
53409;SDS011;66590;50.734;4.246;2023-07-13T05:13:21;14.38;;;4.78;;
53409;SDS011;66590;50.734;4.246;2023-07-13T05:15:55;18.13;;;4.70;;
53409;SDS011;66590;50.734;4.246;2023-07-13T05:18:23;14.27;;;4.47;;
53409;SDS011;66590;50.734;4.246;2023-07-13T05:21:00;16.05;;;4.45;;
53409;SDS011;66590;50.734;4.246;2023-07-13T05:23:29;13.73;;;4.38;;
53409;SDS011;66590;50.734;4.246;2023-07-13T05:25:57;14.65;;;4.20;;
53409;SDS011;66590;50.734;4.246;2023-07-13T05:28:24;17.40;;;4.43;;
53409;SDS011;66590;50.734;4.246;2023-07-13T05:30:52;15.02;;;4.53;;
53409;SDS011;66590;50.734;4.246;2023-07-13T05:33:20;12.05;;;4.13;;
53409;SDS011;66590;50.734;4.246;2023-07-13T05:35:48;13.07;;;4.72;;
53409;SDS011;66590;50.734;4.246;2023-07-13T05:38:16;13.70;;;4.60;;
53409;SDS011;66590;50.734;4.246;2023-07-13T05:40:44;16.08;;;4.60;;
53409;SDS011;66590;50.734;4.246;2023-07-13T05:43:11;10.88;;;4.13;;
53409;SDS011;66590;50.734;4.246;2023-07-13T05:45:39;13.77;;;4.20;;
53409;SDS011;66590;50.734;4.246;2023-07-13T05:48:06;14.63;;;4.20;;
53409;SDS011;66590;50.734;4.246;2023-07-13T05:50:34;11.32;;;4.40;;
53409;SDS011;66590;50.734;4.246;2023-07-13T05:53:01;13.27;;;4.07;;
53409;SDS011;66590;50.734;4.246;2023-07-13T05:55:29;15.55;;;4.70;;
53409;SDS011;66590;50.734;4.246;2023-07-13T05:57:57;14.48;;;4.68;;
53409;SDS011;66590;50.734;4.246;2023-07-13T06:00:25;12.68;;;4.57;;
53409;SDS011;66590;50.734;4.246;2023-07-13T06:02:53;17.70;;;4.82;;
53409;SDS011;66590;50.734;4.246;2023-07-13T06:05:20;16.83;;;4.95;;
53409;SDS011;66590;50.734;4.246;2023-07-13T06:07:47;12.73;;;4.18;;
53409;SDS011;66590;50.734;4.246;2023-07-13T06:10:15;16.70;;;5.32;;
53409;SDS011;66590;50.734;4.246;2023-07-13T06:12:44;13.75;;;5.80;;
53409;SDS011;66590;50.734;4.246;2023-07-13T06:15:11;13.52;;;5.07;;
53409;SDS011;66590;50.734;4.246;2023-07-13T06:17:38;13.93;;;5.03;;
53409;SDS011;66590;50.734;4.246;2023-07-13T06:20:06;12.75;;;4.85;;
53409;SDS011;66590;50.734;4.246;2023-07-13T06:22:34;16.15;;;5.22;;
53409;SDS011;66590;50.734;4.246;2023-07-13T06:25:01;12.50;;;4.60;;
53409;SDS011;66590;50.734;4.246;2023-07-13T06:27:28;16.70;;;5.22;;
53409;SDS011;66590;50.734;4.246;2023-07-13T06:29:58;13.50;;;4.38;;
53409;SDS011;66590;50.734;4.246;2023-07-13T06:32:26;8.48;;;4.07;;
53409;SDS011;66590;50.734;4.246;2023-07-13T06:34:54;15.15;;;5.70;;
53409;SDS011;66590;50.734;4.246;2023-07-13T06:37:21;13.38;;;4.57;;
53409;SDS011;66590;50.734;4.246;2023-07-13T06:39:48;18.30;;;5.57;;
53409;SDS011;66590;50.734;4.246;2023-07-13T06:42:18;17.38;;;5.28;;
53409;SDS011;66590;50.734;4.246;2023-07-13T06:44:48;15.02;;;4.80;;
53409;SDS011;66590;50.734;4.246;2023-07-13T06:47:17;19.00;;;6.55;;
53409;SDS011;66590;50.734;4.246;2023-07-13T06:49:44;17.98;;;4.75;;
53409;SDS011;66590;50.734;4.246;2023-07-13T06:52:11;13.95;;;4.15;;
53409;SDS011;66590;50.734;4.246;2023-07-13T06:54:39;11.45;;;4.25;;
53409;SDS011;66590;50.734;4.246;2023-07-13T06:57:06;12.73;;;4.45;;
53409;SDS011;66590;50.734;4.246;2023-07-13T06:59:33;13.45;;;4.95;;
53409;SDS011;66590;50.734;4.246;2023-07-13T07:02:00;14.63;;;4.65;;
53409;SDS011;66590;50.734;4.246;2023-07-13T07:04:29;11.82;;;4.45;;
53409;SDS011;66590;50.734;4.246;2023-07-13T07:06:56;14.27;;;4.88;;
53409;SDS011;66590;50.734;4.246;2023-07-13T07:09:25;15.05;;;4.68;;
53409;SDS011;66590;50.734;4.246;2023-07-13T07:11:52;12.55;;;4.28;;
53409;SDS011;66590;50.734;4.246;2023-07-13T07:14:29;13.40;;;4.55;;
53409;SDS011;66590;50.734;4.246;2023-07-13T07:16:57;12.50;;;4.40;;
53409;SDS011;66590;50.734;4.246;2023-07-13T07:19:24;9.73;;;4.47;;
53409;SDS011;66590;50.734;4.246;2023-07-13T07:21:52;13.52;;;3.92;;
53409;SDS011;66590;50.734;4.246;2023-07-13T07:24:19;13.73;;;4.05;;
53409;SDS011;66590;50.734;4.246;2023-07-13T07:26:47;16.55;;;4.30;;
53409;SDS011;66590;50.734;4.246;2023-07-13T07:29:17;12.48;;;4.10;;
53409;SDS011;66590;50.734;4.246;2023-07-13T07:31:47;12.82;;;3.85;;
53409;SDS011;66590;50.734;4.246;2023-07-13T07:34:29;17.08;;;4.53;;
53409;SDS011;66590;50.734;4.246;2023-07-13T07:36:58;11.25;;;3.95;;
53409;SDS011;66590;50.734;4.246;2023-07-13T07:39:29;11.77;;;3.63;;
53409;SDS011;66590;50.734;4.246;2023-07-13T07:41:57;13.93;;;4.53;;
53409;SDS011;66590;50.734;4.246;2023-07-13T07:44:25;9.75;;;3.55;;
53409;SDS011;66590;50.734;4.246;2023-07-13T07:46:52;12.93;;;3.38;;
53409;SDS011;66590;50.734;4.246;2023-07-13T07:49:19;13.57;;;4.05;;
53409;SDS011;66590;50.734;4.246;2023-07-13T07:51:46;12.00;;;4.53;;
53409;SDS011;66590;50.734;4.246;2023-07-13T07:54:15;10.80;;;4.00;;
53409;SDS011;66590;50.734;4.246;2023-07-13T07:57:02;11.93;;;3.85;;
53409;SDS011;66590;50.734;4.246;2023-07-13T07:59:33;10.50;;;3.80;;
53409;SDS011;66590;50.734;4.246;2023-07-13T08:02:03;9.75;;;3.65;;
53409;SDS011;66590;50.734;4.246;2023-07-13T08:04:34;11.38;;;3.55;;
53409;SDS011;66590;50.734;4.246;2023-07-13T08:07:04;10.15;;;3.40;;
53409;SDS011;66590;50.734;4.246;2023-07-13T08:09:33;12.55;;;3.80;;
53409;SDS011;66590;50.734;4.246;2023-07-13T08:12:00;11.07;;;3.75;;
53409;SDS011;66590;50.734;4.246;2023-07-13T08:14:30;11.93;;;3.92;;
53409;SDS011;66590;50.734;4.246;2023-07-13T08:17:17;14.63;;;4.28;;
53409;SDS011;66590;50.734;4.246;2023-07-13T08:19:45;9.25;;;3.72;;
53409;SDS011;66590;50.734;4.246;2023-07-13T08:22:12;11.48;;;3.90;;
53409;SDS011;66590;50.734;4.246;2023-07-13T08:24:40;13.98;;;3.80;;
53409;SDS011;66590;50.734;4.246;2023-07-13T08:27:08;12.23;;;4.60;;
53409;SDS011;66590;50.734;4.246;2023-07-13T08:29:35;8.43;;;3.97;;
53409;SDS011;66590;50.734;4.246;2023-07-13T08:32:02;12.95;;;3.75;;
53409;SDS011;66590;50.734;4.246;2023-07-13T08:34:31;15.02;;;4.38;;
53409;SDS011;66590;50.734;4.246;2023-07-13T08:36:58;10.18;;;3.80;;
53409;SDS011;66590;50.734;4.246;2023-07-13T08:39:25;12.15;;;3.85;;
53409;SDS011;66590;50.734;4.246;2023-07-13T08:41:55;7.90;;;3.50;;
53409;SDS011;66590;50.734;4.246;2023-07-13T08:46:57;8.00;;;3.40;;
53409;SDS011;66590;50.734;4.246;2023-07-13T08:49:25;14.95;;;4.25;;
53409;SDS011;66590;50.734;4.246;2023-07-13T08:51:53;9.50;;;3.35;;
53409;SDS011;66590;50.734;4.246;2023-07-13T08:54:26;11.52;;;3.92;;
53409;SDS011;66590;50.734;4.246;2023-07-13T08:56:57;17.38;;;3.85;;
53409;SDS011;66590;50.734;4.246;2023-07-13T08:59:27;10.15;;;3.47;;
53409;SDS011;66590;50.734;4.246;2023-07-13T09:02:00;13.13;;;3.75;;
53409;SDS011;66590;50.734;4.246;2023-07-13T09:07:13;11.00;;;3.80;;
53409;SDS011;66590;50.734;4.246;2023-07-13T09:09:50;8.45;;;3.40;;
53409;SDS011;66590;50.734;4.246;2023-07-13T09:12:27;9.93;;;3.35;;
53409;SDS011;66590;50.734;4.246;2023-07-13T09:15:02;6.38;;;2.90;;
53409;SDS011;66590;50.734;4.246;2023-07-13T09:17:32;11.40;;;3.70;;
53409;SDS011;66590;50.734;4.246;2023-07-13T09:20:08;11.80;;;3.40;;
53409;SDS011;66590;50.734;4.246;2023-07-13T09:22:43;9.70;;;3.97;;
53409;SDS011;66590;50.734;4.246;2023-07-13T09:25:18;9.95;;;3.70;;
53409;SDS011;66590;50.734;4.246;2023-07-13T09:27:52;9.88;;;3.58;;
53409;SDS011;66590;50.734;4.246;2023-07-13T09:30:24;10.15;;;3.40;;
53409;SDS011;66590;50.734;4.246;2023-07-13T09:32:59;10.18;;;3.97;;
53409;SDS011;66590;50.734;4.246;2023-07-13T09:35:27;11.48;;;3.60;;
53409;SDS011;66590;50.734;4.246;2023-07-13T09:37:59;9.63;;;3.80;;
53409;SDS011;66590;50.734;4.246;2023-07-13T09:40:40;9.73;;;4.07;;
53409;SDS011;66590;50.734;4.246;2023-07-13T09:43:27;8.90;;;3.00;;
53409;SDS011;66590;50.734;4.246;2023-07-13T09:45:54;7.35;;;3.17;;
53409;SDS011;66590;50.734;4.246;2023-07-13T09:48:22;8.55;;;3.47;;
53409;SDS011;66590;50.734;4.246;2023-07-13T09:50:49;9.60;;;3.00;;
53409;SDS011;66590;50.734;4.246;2023-07-13T09:53:21;9.00;;;3.20;;
53409;SDS011;66590;50.734;4.246;2023-07-13T09:55:48;6.07;;;2.72;;
53409;SDS011;66590;50.734;4.246;2023-07-13T09:58:19;8.18;;;3.17;;
53409;SDS011;66590;50.734;4.246;2023-07-13T10:00:55;7.05;;;2.63;;
53409;SDS011;66590;50.734;4.246;2023-07-13T10:03:26;8.52;;;2.85;;
53409;SDS011;66590;50.734;4.246;2023-07-13T10:05:54;10.15;;;2.97;;
53409;SDS011;66590;50.734;4.246;2023-07-13T10:08:28;8.93;;;2.58;;
53409;SDS011;66590;50.734;4.246;2023-07-13T10:10:57;10.73;;;3.25;;
53409;SDS011;66590;50.734;4.246;2023-07-13T10:13:26;6.72;;;3.38;;
53409;SDS011;66590;50.734;4.246;2023-07-13T10:16:08;7.93;;;3.03;;
53409;SDS011;66590;50.734;4.246;2023-07-13T10:18:38;6.57;;;3.00;;
53409;SDS011;66590;50.734;4.246;2023-07-13T10:21:11;10.35;;;3.40;;
53409;SDS011;66590;50.734;4.246;2023-07-13T10:23:43;7.30;;;3.17;;
53409;SDS011;66590;50.734;4.246;2023-07-13T10:26:15;7.25;;;3.38;;
53409;SDS011;66590;50.734;4.246;2023-07-13T10:28:46;6.05;;;2.67;;
53409;SDS011;66590;50.734;4.246;2023-07-13T10:31:19;6.95;;;3.05;;
53409;SDS011;66590;50.734;4.246;2023-07-13T10:33:47;8.70;;;2.95;;
53409;SDS011;66590;50.734;4.246;2023-07-13T10:36:17;4.95;;;2.63;;
53409;SDS011;66590;50.734;4.246;2023-07-13T10:38:59;4.68;;;2.45;;
53409;SDS011;66590;50.734;4.246;2023-07-13T10:41:29;10.80;;;3.00;;
53409;SDS011;66590;50.734;4.246;2023-07-13T10:44:00;8.80;;;2.75;;
53409;SDS011;66590;50.734;4.246;2023-07-13T10:46:29;6.63;;;2.75;;
53409;SDS011;66590;50.734;4.246;2023-07-13T10:48:57;7.32;;;2.63;;
53409;SDS011;66590;50.734;4.246;2023-07-13T10:51:27;8.15;;;3.22;;
53409;SDS011;66590;50.734;4.246;2023-07-13T10:56:46;7.15;;;2.78;;
53409;SDS011;66590;50.734;4.246;2023-07-13T10:59:17;4.55;;;2.33;;
53409;SDS011;66590;50.734;4.246;2023-07-13T11:01:52;8.15;;;2.70;;
53409;SDS011;66590;50.734;4.246;2023-07-13T11:04:23;8.00;;;2.90;;
53409;SDS011;66590;50.734;4.246;2023-07-13T11:06:53;8.02;;;2.67;;
53409;SDS011;66590;50.734;4.246;2023-07-13T11:09:34;5.90;;;2.92;;
53409;SDS011;66590;50.734;4.246;2023-07-13T11:12:06;5.40;;;2.25;;
53409;SDS011;66590;50.734;4.246;2023-07-13T11:14:36;7.63;;;2.67;;
53409;SDS011;66590;50.734;4.246;2023-07-13T11:20:09;7.72;;;2.60;;
53409;SDS011;66590;50.734;4.246;2023-07-13T11:22:47;3.60;;;2.13;;
53409;SDS011;66590;50.734;4.246;2023-07-13T11:25:26;3.95;;;2.15;;
53409;SDS011;66590;50.734;4.246;2023-07-13T11:28:05;7.68;;;2.53;;
53409;SDS011;66590;50.734;4.246;2023-07-13T11:30:40;3.55;;;2.05;;
53409;SDS011;66590;50.734;4.246;2023-07-13T11:33:13;5.03;;;2.35;;
53409;SDS011;66590;50.734;4.246;2023-07-13T11:35:50;7.00;;;2.55;;
53409;SDS011;66590;50.734;4.246;2023-07-13T11:38:28;5.70;;;2.35;;
53409;SDS011;66590;50.734;4.246;2023-07-13T11:41:00;7.07;;;2.30;;
53409;SDS011;66590;50.734;4.246;2023-07-13T11:43:30;3.63;;;1.85;;
53409;SDS011;66590;50.734;4.246;2023-07-13T11:45:57;9.48;;;2.78;;
53409;SDS011;66590;50.734;4.246;2023-07-13T11:48:27;3.83;;;2.13;;
53409;SDS011;66590;50.734;4.246;2023-07-13T11:50:56;7.60;;;2.67;;
53409;SDS011;66590;50.734;4.246;2023-07-13T11:53:26;6.53;;;2.60;;
53409;SDS011;66590;50.734;4.246;2023-07-13T11:55:56;4.18;;;2.10;;
53409;SDS011;66590;50.734;4.246;2023-07-13T11:58:24;6.80;;;2.20;;
53409;SDS011;66590;50.734;4.246;2023-07-13T12:00:53;5.68;;;2.00;;
53409;SDS011;66590;50.734;4.246;2023-07-13T12:03:22;5.50;;;2.00;;
53409;SDS011;66590;50.734;4.246;2023-07-13T12:05:59;4.80;;;1.80;;
53409;SDS011;66590;50.734;4.246;2023-07-13T12:08:28;5.43;;;2.03;;
53409;SDS011;66590;50.734;4.246;2023-07-13T12:10:56;3.65;;;1.80;;
53409;SDS011;66590;50.734;4.246;2023-07-13T12:13:26;4.45;;;1.60;;
53409;SDS011;66590;50.734;4.246;2023-07-13T12:15:53;5.15;;;2.03;;
53409;SDS011;66590;50.734;4.246;2023-07-13T12:18:23;4.05;;;1.70;;
53409;SDS011;66590;50.734;4.246;2023-07-13T12:20:59;5.30;;;2.15;;
53409;SDS011;66590;50.734;4.246;2023-07-13T12:23:28;6.45;;;1.95;;
53409;SDS011;66590;50.734;4.246;2023-07-13T12:25:57;4.72;;;1.90;;
53409;SDS011;66590;50.734;4.246;2023-07-13T12:28:31;4.40;;;2.00;;
53409;SDS011;66590;50.734;4.246;2023-07-13T12:31:00;2.97;;;1.70;;
53409;SDS011;66590;50.734;4.246;2023-07-13T12:33:29;4.28;;;1.60;;
53409;SDS011;66590;50.734;4.246;2023-07-13T12:36:00;4.80;;;1.95;;
53409;SDS011;66590;50.734;4.246;2023-07-13T12:38:30;5.35;;;2.22;;
53409;SDS011;66590;50.734;4.246;2023-07-13T12:40:57;4.07;;;1.92;;
53409;SDS011;66590;50.734;4.246;2023-07-13T12:43:25;5.13;;;2.25;;
53409;SDS011;66590;50.734;4.246;2023-07-13T12:45:57;4.75;;;2.40;;
53409;SDS011;66590;50.734;4.246;2023-07-13T12:48:26;4.68;;;2.58;;
53409;SDS011;66590;50.734;4.246;2023-07-13T12:51:20;3.03;;;2.28;;
53409;SDS011;66590;50.734;4.246;2023-07-13T12:53:56;5.03;;;2.45;;
53409;SDS011;66590;50.734;4.246;2023-07-13T12:56:31;6.22;;;2.55;;
53409;SDS011;66590;50.734;4.246;2023-07-13T12:59:01;5.90;;;2.10;;
53409;SDS011;66590;50.734;4.246;2023-07-13T13:01:31;4.05;;;1.95;;
53409;SDS011;66590;50.734;4.246;2023-07-13T13:04:01;6.32;;;1.83;;
53409;SDS011;66590;50.734;4.246;2023-07-13T13:06:31;3.58;;;1.95;;
53409;SDS011;66590;50.734;4.246;2023-07-13T13:08:59;5.25;;;2.40;;
53409;SDS011;66590;50.734;4.246;2023-07-13T13:11:26;4.30;;;2.63;;
53409;SDS011;66590;50.734;4.246;2023-07-13T13:13:55;4.40;;;2.50;;
53409;SDS011;66590;50.734;4.246;2023-07-13T13:16:22;3.58;;;2.28;;
53409;SDS011;66590;50.734;4.246;2023-07-13T13:18:55;7.00;;;2.53;;
53409;SDS011;66590;50.734;4.246;2023-07-13T13:21:24;5.57;;;2.28;;
53409;SDS011;66590;50.734;4.246;2023-07-13T13:23:52;3.72;;;2.22;;
53409;SDS011;66590;50.734;4.246;2023-07-13T13:26:21;6.80;;;2.33;;
53409;SDS011;66590;50.734;4.246;2023-07-13T13:28:48;3.05;;;1.90;;
53409;SDS011;66590;50.734;4.246;2023-07-13T13:31:16;4.78;;;1.65;;
53409;SDS011;66590;50.734;4.246;2023-07-13T13:33:44;5.20;;;1.92;;
53409;SDS011;66590;50.734;4.246;2023-07-13T13:36:13;5.43;;;1.83;;
53409;SDS011;66590;50.734;4.246;2023-07-13T13:38:42;3.70;;;1.70;;
53409;SDS011;66590;50.734;4.246;2023-07-13T13:41:12;2.80;;;1.52;;
53409;SDS011;66590;50.734;4.246;2023-07-13T13:43:40;3.22;;;1.65;;
53409;SDS011;66590;50.734;4.246;2023-07-13T13:46:13;3.63;;;1.80;;
53409;SDS011;66590;50.734;4.246;2023-07-13T13:48:43;2.72;;;1.50;;
53409;SDS011;66590;50.734;4.246;2023-07-13T13:51:15;3.25;;;1.88;;
53409;SDS011;66590;50.734;4.246;2023-07-13T13:53:50;4.43;;;1.80;;
53409;SDS011;66590;50.734;4.246;2023-07-13T13:56:19;3.22;;;1.70;;
53409;SDS011;66590;50.734;4.246;2023-07-13T13:58:48;3.35;;;1.83;;
53409;SDS011;66590;50.734;4.246;2023-07-13T14:01:16;2.25;;;1.58;;
53409;SDS011;66590;50.734;4.246;2023-07-13T14:03:45;3.60;;;1.92;;
53409;SDS011;66590;50.734;4.246;2023-07-13T14:06:13;5.55;;;2.00;;
53409;SDS011;66590;50.734;4.246;2023-07-13T14:08:41;4.35;;;1.92;;
53409;SDS011;66590;50.734;4.246;2023-07-13T14:11:10;3.33;;;1.95;;
53409;SDS011;66590;50.734;4.246;2023-07-13T14:13:40;5.03;;;2.22;;
53409;SDS011;66590;50.734;4.246;2023-07-13T14:16:10;3.28;;;2.28;;
53409;SDS011;66590;50.734;4.246;2023-07-13T14:18:39;6.18;;;2.67;;
53409;SDS011;66590;50.734;4.246;2023-07-13T14:21:10;7.32;;;2.58;;
53409;SDS011;66590;50.734;4.246;2023-07-13T14:23:39;6.40;;;2.80;;
53409;SDS011;66590;50.734;4.246;2023-07-13T14:26:08;5.63;;;2.42;;
53409;SDS011;66590;50.734;4.246;2023-07-13T14:28:38;5.20;;;2.53;;
53409;SDS011;66590;50.734;4.246;2023-07-13T14:31:10;3.97;;;2.40;;
53409;SDS011;66590;50.734;4.246;2023-07-13T14:33:38;7.63;;;2.70;;
53409;SDS011;66590;50.734;4.246;2023-07-13T14:36:10;4.75;;;2.55;;
53409;SDS011;66590;50.734;4.246;2023-07-13T14:38:53;5.50;;;2.67;;
53409;SDS011;66590;50.734;4.246;2023-07-13T14:41:21;4.22;;;2.70;;
53409;SDS011;66590;50.734;4.246;2023-07-13T14:43:49;4.80;;;2.70;;
53409;SDS011;66590;50.734;4.246;2023-07-13T14:46:20;4.13;;;2.25;;
53409;SDS011;66590;50.734;4.246;2023-07-13T14:48:54;3.80;;;2.75;;
53409;SDS011;66590;50.734;4.246;2023-07-13T14:51:27;4.23;;;2.93;;
53409;SDS011;66590;50.734;4.246;2023-07-13T14:54:02;8.15;;;3.10;;
53409;SDS011;66590;50.734;4.246;2023-07-13T14:56:31;4.68;;;2.55;;
53409;SDS011;66590;50.734;4.246;2023-07-13T14:59:00;5.75;;;2.70;;
53409;SDS011;66590;50.734;4.246;2023-07-13T15:01:27;5.78;;;2.72;;
53409;SDS011;66590;50.734;4.246;2023-07-13T15:03:55;6.95;;;2.78;;
53409;SDS011;66590;50.734;4.246;2023-07-13T15:06:22;6.18;;;2.63;;